sensor_id;sensor_type;location;lat;lon;timestamp;temperature;humidity
38265;DHT22;24062;47.480;8.768;2023-05-07T00:00:42;12.90;80.80
38265;DHT22;24062;47.480;8.768;2023-05-07T00:03:09;12.80;80.90
38265;DHT22;24062;47.480;8.768;2023-05-07T00:05:36;12.80;82.00
38265;DHT22;24062;47.480;8.768;2023-05-07T00:08:04;12.80;81.30
38265;DHT22;24062;47.480;8.768;2023-05-07T00:10:33;12.80;81.30
38265;DHT22;24062;47.480;8.768;2023-05-07T00:13:00;12.80;81.60
38265;DHT22;24062;47.480;8.768;2023-05-07T00:15:27;12.70;82.00
38265;DHT22;24062;47.480;8.768;2023-05-07T00:17:54;12.60;82.40
38265;DHT22;24062;47.480;8.768;2023-05-07T00:20:21;12.50;82.20
38265;DHT22;24062;47.480;8.768;2023-05-07T00:22:47;12.50;82.40
38265;DHT22;24062;47.480;8.768;2023-05-07T00:25:14;12.60;82.60
38265;DHT22;24062;47.480;8.768;2023-05-07T00:27:43;12.60;82.90
38265;DHT22;24062;47.480;8.768;2023-05-07T00:30:11;12.60;82.70
38265;DHT22;24062;47.480;8.768;2023-05-07T00:32:38;12.60;82.80
38265;DHT22;24062;47.480;8.768;2023-05-07T00:35:06;12.60;83.00
38265;DHT22;24062;47.480;8.768;2023-05-07T00:37:33;12.50;83.00
38265;DHT22;24062;47.480;8.768;2023-05-07T00:40:00;12.40;83.20
38265;DHT22;24062;47.480;8.768;2023-05-07T00:42:29;12.40;83.40
38265;DHT22;24062;47.480;8.768;2023-05-07T00:44:59;12.40;83.80
38265;DHT22;24062;47.480;8.768;2023-05-07T00:47:26;12.30;84.20
38265;DHT22;24062;47.480;8.768;2023-05-07T00:49:53;12.20;85.70
38265;DHT22;24062;47.480;8.768;2023-05-07T00:52:21;12.20;85.10
38265;DHT22;24062;47.480;8.768;2023-05-07T00:54:52;12.20;85.20
38265;DHT22;24062;47.480;8.768;2023-05-07T00:57:19;12.20;85.10
38265;DHT22;24062;47.480;8.768;2023-05-07T00:59:47;12.30;85.10
38265;DHT22;24062;47.480;8.768;2023-05-07T01:02:16;12.30;84.90
38265;DHT22;24062;47.480;8.768;2023-05-07T01:04:43;12.30;85.10
38265;DHT22;24062;47.480;8.768;2023-05-07T01:07:11;12.10;85.10
38265;DHT22;24062;47.480;8.768;2023-05-07T01:09:38;12.10;85.50
38265;DHT22;24062;47.480;8.768;2023-05-07T01:12:06;12.00;85.80
38265;DHT22;24062;47.480;8.768;2023-05-07T01:14:34;12.00;86.40
38265;DHT22;24062;47.480;8.768;2023-05-07T01:17:01;11.90;86.30
38265;DHT22;24062;47.480;8.768;2023-05-07T01:19:30;11.90;86.50
38265;DHT22;24062;47.480;8.768;2023-05-07T01:22:02;11.90;86.80
38265;DHT22;24062;47.480;8.768;2023-05-07T01:24:32;11.80;87.00
38265;DHT22;24062;47.480;8.768;2023-05-07T01:26:59;11.80;87.50
38265;DHT22;24062;47.480;8.768;2023-05-07T01:29:28;11.80;87.40
38265;DHT22;24062;47.480;8.768;2023-05-07T01:31:57;11.80;87.40
38265;DHT22;24062;47.480;8.768;2023-05-07T01:34:25;11.90;87.30
38265;DHT22;24062;47.480;8.768;2023-05-07T01:36:54;11.90;87.20
38265;DHT22;24062;47.480;8.768;2023-05-07T01:39:24;11.90;87.10
38265;DHT22;24062;47.480;8.768;2023-05-07T01:41:54;12.00;87.00
38265;DHT22;24062;47.480;8.768;2023-05-07T01:44:22;12.00;87.20
38265;DHT22;24062;47.480;8.768;2023-05-07T01:46:50;11.80;86.90
38265;DHT22;24062;47.480;8.768;2023-05-07T01:49:17;11.70;87.10
38265;DHT22;24062;47.480;8.768;2023-05-07T01:51:44;11.70;87.40
38265;DHT22;24062;47.480;8.768;2023-05-07T01:54:11;11.70;87.70
38265;DHT22;24062;47.480;8.768;2023-05-07T01:56:38;11.70;87.90
38265;DHT22;24062;47.480;8.768;2023-05-07T01:59:07;11.70;88.00
38265;DHT22;24062;47.480;8.768;2023-05-07T02:01:34;11.60;88.20
38265;DHT22;24062;47.480;8.768;2023-05-07T02:04:01;11.60;88.10
38265;DHT22;24062;47.480;8.768;2023-05-07T02:06:27;11.70;88.10
38265;DHT22;24062;47.480;8.768;2023-05-07T02:08:54;11.70;88.80
38265;DHT22;24062;47.480;8.768;2023-05-07T02:11:21;11.70;87.90
38265;DHT22;24062;47.480;8.768;2023-05-07T02:13:48;11.70;87.80
38265;DHT22;24062;47.480;8.768;2023-05-07T02:16:16;11.70;87.60
38265;DHT22;24062;47.480;8.768;2023-05-07T02:18:44;11.60;87.60
38265;DHT22;24062;47.480;8.768;2023-05-07T02:21:11;11.50;87.50
38265;DHT22;24062;47.480;8.768;2023-05-07T02:23:38;11.40;88.00
38265;DHT22;24062;47.480;8.768;2023-05-07T02:26:05;11.30;88.40
38265;DHT22;24062;47.480;8.768;2023-05-07T02:28:32;11.20;88.80
38265;DHT22;24062;47.480;8.768;2023-05-07T02:31:02;11.20;88.90
38265;DHT22;24062;47.480;8.768;2023-05-07T02:33:30;11.10;89.20
38265;DHT22;24062;47.480;8.768;2023-05-07T02:36:05;11.00;89.80
38265;DHT22;24062;47.480;8.768;2023-05-07T02:38:32;10.90;90.30
38265;DHT22;24062;47.480;8.768;2023-05-07T02:40:59;10.80;90.40
38265;DHT22;24062;47.480;8.768;2023-05-07T02:43:26;10.80;90.50
38265;DHT22;24062;47.480;8.768;2023-05-07T02:46:00;10.80;90.50
38265;DHT22;24062;47.480;8.768;2023-05-07T02:48:29;10.80;90.40
38265;DHT22;24062;47.480;8.768;2023-05-07T02:50:56;10.90;90.30
38265;DHT22;24062;47.480;8.768;2023-05-07T02:53:23;10.90;90.30
38265;DHT22;24062;47.480;8.768;2023-05-07T02:55:52;10.80;90.30
38265;DHT22;24062;47.480;8.768;2023-05-07T02:58:19;10.70;90.50
38265;DHT22;24062;47.480;8.768;2023-05-07T03:00:46;10.70;90.50
38265;DHT22;24062;47.480;8.768;2023-05-07T03:03:13;10.70;90.60
38265;DHT22;24062;47.480;8.768;2023-05-07T03:05:42;10.70;90.70
38265;DHT22;24062;47.480;8.768;2023-05-07T03:08:09;10.60;90.70
38265;DHT22;24062;47.480;8.768;2023-05-07T03:10:36;10.60;90.80
38265;DHT22;24062;47.480;8.768;2023-05-07T03:13:04;10.50;90.80
38265;DHT22;24062;47.480;8.768;2023-05-07T03:15:31;10.50;90.90
38265;DHT22;24062;47.480;8.768;2023-05-07T03:17:57;10.50;90.90
38265;DHT22;24062;47.480;8.768;2023-05-07T03:20:24;10.50;90.90
38265;DHT22;24062;47.480;8.768;2023-05-07T03:22:53;10.50;90.90
38265;DHT22;24062;47.480;8.768;2023-05-07T03:25:20;10.40;91.00
38265;DHT22;24062;47.480;8.768;2023-05-07T03:27:46;10.30;91.00
38265;DHT22;24062;47.480;8.768;2023-05-07T03:30:14;10.30;91.10
38265;DHT22;24062;47.480;8.768;2023-05-07T03:32:40;10.30;91.20
38265;DHT22;24062;47.480;8.768;2023-05-07T03:35:08;10.30;91.30
38265;DHT22;24062;47.480;8.768;2023-05-07T03:37:35;10.30;91.30
38265;DHT22;24062;47.480;8.768;2023-05-07T03:40:04;10.20;91.30
38265;DHT22;24062;47.480;8.768;2023-05-07T03:42:32;10.30;91.30
38265;DHT22;24062;47.480;8.768;2023-05-07T03:44:58;10.20;91.30
38265;DHT22;24062;47.480;8.768;2023-05-07T03:47:25;10.20;91.30
38265;DHT22;24062;47.480;8.768;2023-05-07T03:49:52;10.20;91.40
38265;DHT22;24062;47.480;8.768;2023-05-07T03:52:20;10.20;91.50
38265;DHT22;24062;47.480;8.768;2023-05-07T03:54:51;10.10;91.50
38265;DHT22;24062;47.480;8.768;2023-05-07T03:57:20;10.10;91.70
38265;DHT22;24062;47.480;8.768;2023-05-07T03:59:47;10.20;91.80
38265;DHT22;24062;47.480;8.768;2023-05-07T04:02:14;10.20;91.80
38265;DHT22;24062;47.480;8.768;2023-05-07T04:04:40;10.20;91.80
38265;DHT22;24062;47.480;8.768;2023-05-07T04:07:07;10.10;91.80
38265;DHT22;24062;47.480;8.768;2023-05-07T04:09:35;10.10;91.90
38265;DHT22;24062;47.480;8.768;2023-05-07T04:12:03;10.00;92.10
38265;DHT22;24062;47.480;8.768;2023-05-07T04:14:31;10.00;92.50
38265;DHT22;24062;47.480;8.768;2023-05-07T04:16:58;10.00;92.60
38265;DHT22;24062;47.480;8.768;2023-05-07T04:19:25;10.00;92.60
38265;DHT22;24062;47.480;8.768;2023-05-07T04:21:52;10.00;92.90
38265;DHT22;24062;47.480;8.768;2023-05-07T04:24:19;10.00;93.10
38265;DHT22;24062;47.480;8.768;2023-05-07T04:26:46;10.10;93.10
38265;DHT22;24062;47.480;8.768;2023-05-07T04:29:13;10.20;93.40
38265;DHT22;24062;47.480;8.768;2023-05-07T04:31:42;10.20;93.30
38265;DHT22;24062;47.480;8.768;2023-05-07T04:34:09;10.30;93.50
38265;DHT22;24062;47.480;8.768;2023-05-07T04:36:38;10.40;93.50
38265;DHT22;24062;47.480;8.768;2023-05-07T04:39:05;10.60;93.60
38265;DHT22;24062;47.480;8.768;2023-05-07T04:41:32;10.70;93.50
38265;DHT22;24062;47.480;8.768;2023-05-07T04:43:59;10.70;93.60
38265;DHT22;24062;47.480;8.768;2023-05-07T04:46:26;10.80;93.50
38265;DHT22;24062;47.480;8.768;2023-05-07T04:48:54;10.80;93.50
38265;DHT22;24062;47.480;8.768;2023-05-07T04:51:21;10.90;94.10
38265;DHT22;24062;47.480;8.768;2023-05-07T04:53:49;11.00;94.30
38265;DHT22;24062;47.480;8.768;2023-05-07T04:56:16;11.10;94.40
38265;DHT22;24062;47.480;8.768;2023-05-07T04:58:43;11.30;94.80
38265;DHT22;24062;47.480;8.768;2023-05-07T05:01:09;11.40;94.20
38265;DHT22;24062;47.480;8.768;2023-05-07T05:03:36;11.50;94.30
38265;DHT22;24062;47.480;8.768;2023-05-07T05:06:06;11.60;94.60
38265;DHT22;24062;47.480;8.768;2023-05-07T05:08:33;11.80;94.70
38265;DHT22;24062;47.480;8.768;2023-05-07T05:11:00;12.00;94.70
38265;DHT22;24062;47.480;8.768;2023-05-07T05:13:27;12.10;94.70
38265;DHT22;24062;47.480;8.768;2023-05-07T05:15:55;12.30;94.70
38265;DHT22;24062;47.480;8.768;2023-05-07T05:18:22;12.30;94.60
38265;DHT22;24062;47.480;8.768;2023-05-07T05:20:51;12.50;94.70
38265;DHT22;24062;47.480;8.768;2023-05-07T05:23:19;12.60;94.80
38265;DHT22;24062;47.480;8.768;2023-05-07T05:25:46;12.80;94.70
38265;DHT22;24062;47.480;8.768;2023-05-07T05:28:13;12.90;94.80
38265;DHT22;24062;47.480;8.768;2023-05-07T05:30:40;12.90;94.10
38265;DHT22;24062;47.480;8.768;2023-05-07T05:33:07;13.00;95.00
38265;DHT22;24062;47.480;8.768;2023-05-07T05:35:34;13.20;94.70
38265;DHT22;24062;47.480;8.768;2023-05-07T05:38:01;13.20;94.20
38265;DHT22;24062;47.480;8.768;2023-05-07T05:40:30;13.30;94.30
38265;DHT22;24062;47.480;8.768;2023-05-07T05:42:57;13.40;94.70
38265;DHT22;24062;47.480;8.768;2023-05-07T05:45:24;13.50;94.40
38265;DHT22;24062;47.480;8.768;2023-05-07T05:47:51;13.50;94.60
38265;DHT22;24062;47.480;8.768;2023-05-07T05:50:18;13.60;94.80
38265;DHT22;24062;47.480;8.768;2023-05-07T05:52:45;13.80;95.00
38265;DHT22;24062;47.480;8.768;2023-05-07T05:55:12;14.00;94.80
38265;DHT22;24062;47.480;8.768;2023-05-07T05:57:40;14.10;94.70
38265;DHT22;24062;47.480;8.768;2023-05-07T06:00:09;14.20;94.40
38265;DHT22;24062;47.480;8.768;2023-05-07T06:02:36;14.30;94.30
38265;DHT22;24062;47.480;8.768;2023-05-07T06:05:04;14.40;94.20
38265;DHT22;24062;47.480;8.768;2023-05-07T06:07:31;14.50;94.00
38265;DHT22;24062;47.480;8.768;2023-05-07T06:09:58;14.60;93.50
38265;DHT22;24062;47.480;8.768;2023-05-07T06:12:25;14.60;93.10
38265;DHT22;24062;47.480;8.768;2023-05-07T06:14:53;14.50;93.00
38265;DHT22;24062;47.480;8.768;2023-05-07T06:17:20;14.60;93.40
38265;DHT22;24062;47.480;8.768;2023-05-07T06:19:47;14.80;93.50
38265;DHT22;24062;47.480;8.768;2023-05-07T06:22:14;15.00;93.30
38265;DHT22;24062;47.480;8.768;2023-05-07T06:24:41;15.10;92.80
38265;DHT22;24062;47.480;8.768;2023-05-07T06:27:08;15.30;92.60
38265;DHT22;24062;47.480;8.768;2023-05-07T06:29:35;15.50;91.80
38265;DHT22;24062;47.480;8.768;2023-05-07T06:32:10;15.70;92.10
38265;DHT22;24062;47.480;8.768;2023-05-07T06:34:38;15.90;91.80
38265;DHT22;24062;47.480;8.768;2023-05-07T06:37:05;16.20;92.20
38265;DHT22;24062;47.480;8.768;2023-05-07T06:39:32;16.40;91.40
38265;DHT22;24062;47.480;8.768;2023-05-07T06:42:00;16.60;91.30
38265;DHT22;24062;47.480;8.768;2023-05-07T06:44:27;16.80;91.00
38265;DHT22;24062;47.480;8.768;2023-05-07T06:46:54;16.90;90.50
38265;DHT22;24062;47.480;8.768;2023-05-07T06:49:22;16.90;90.10
38265;DHT22;24062;47.480;8.768;2023-05-07T06:51:49;17.00;90.50
38265;DHT22;24062;47.480;8.768;2023-05-07T06:54:16;17.00;90.30
38265;DHT22;24062;47.480;8.768;2023-05-07T06:56:43;17.00;90.50
38265;DHT22;24062;47.480;8.768;2023-05-07T06:59:10;17.10;90.10
38265;DHT22;24062;47.480;8.768;2023-05-07T07:01:37;17.00;89.20
38265;DHT22;24062;47.480;8.768;2023-05-07T07:04:04;16.90;90.20
38265;DHT22;24062;47.480;8.768;2023-05-07T07:06:32;16.90;90.10
38265;DHT22;24062;47.480;8.768;2023-05-07T07:08:59;16.80;89.90
38265;DHT22;24062;47.480;8.768;2023-05-07T07:11:26;16.80;89.10
38265;DHT22;24062;47.480;8.768;2023-05-07T07:13:53;16.80;89.80
38265;DHT22;24062;47.480;8.768;2023-05-07T07:16:21;16.90;89.20
38265;DHT22;24062;47.480;8.768;2023-05-07T07:18:48;16.90;87.40
38265;DHT22;24062;47.480;8.768;2023-05-07T07:21:15;17.00;88.60
38265;DHT22;24062;47.480;8.768;2023-05-07T07:23:43;17.20;87.80
38265;DHT22;24062;47.480;8.768;2023-05-07T07:26:10;17.10;84.40
38265;DHT22;24062;47.480;8.768;2023-05-07T07:28:42;17.10;85.80
38265;DHT22;24062;47.480;8.768;2023-05-07T07:31:10;17.20;85.30
38265;DHT22;24062;47.480;8.768;2023-05-07T07:33:37;17.20;82.60
38265;DHT22;24062;47.480;8.768;2023-05-07T07:36:05;17.10;82.60
38265;DHT22;24062;47.480;8.768;2023-05-07T07:38:32;17.20;82.80
38265;DHT22;24062;47.480;8.768;2023-05-07T07:41:01;17.40;83.40
38265;DHT22;24062;47.480;8.768;2023-05-07T07:43:28;17.60;83.00
38265;DHT22;24062;47.480;8.768;2023-05-07T07:45:55;17.70;81.50
38265;DHT22;24062;47.480;8.768;2023-05-07T07:48:22;17.90;83.20
38265;DHT22;24062;47.480;8.768;2023-05-07T07:50:49;18.20;83.70
38265;DHT22;24062;47.480;8.768;2023-05-07T07:53:17;18.70;83.30
38265;DHT22;24062;47.480;8.768;2023-05-07T07:55:44;18.90;81.40
38265;DHT22;24062;47.480;8.768;2023-05-07T07:58:12;19.10;81.70
38265;DHT22;24062;47.480;8.768;2023-05-07T08:00:39;19.30;81.00
38265;DHT22;24062;47.480;8.768;2023-05-07T08:03:09;19.50;81.00
38265;DHT22;24062;47.480;8.768;2023-05-07T08:05:36;19.50;79.60
38265;DHT22;24062;47.480;8.768;2023-05-07T08:08:04;19.70;79.70
38265;DHT22;24062;47.480;8.768;2023-05-07T08:10:31;19.90;79.60
38265;DHT22;24062;47.480;8.768;2023-05-07T08:13:00;20.10;78.80
38265;DHT22;24062;47.480;8.768;2023-05-07T08:15:30;20.10;77.80
38265;DHT22;24062;47.480;8.768;2023-05-07T08:17:57;20.20;78.30
38265;DHT22;24062;47.480;8.768;2023-05-07T08:20:25;20.50;78.30
38265;DHT22;24062;47.480;8.768;2023-05-07T08:22:52;20.60;77.40
38265;DHT22;24062;47.480;8.768;2023-05-07T08:25:19;20.70;76.40
38265;DHT22;24062;47.480;8.768;2023-05-07T08:27:46;20.80;75.30
38265;DHT22;24062;47.480;8.768;2023-05-07T08:30:14;20.70;73.10
38265;DHT22;24062;47.480;8.768;2023-05-07T08:32:42;20.80;75.00
38265;DHT22;24062;47.480;8.768;2023-05-07T08:35:09;21.10;75.10
38265;DHT22;24062;47.480;8.768;2023-05-07T08:37:36;21.30;74.80
38265;DHT22;24062;47.480;8.768;2023-05-07T08:40:04;21.50;72.80
38265;DHT22;24062;47.480;8.768;2023-05-07T08:42:34;21.60;71.60
38265;DHT22;24062;47.480;8.768;2023-05-07T08:45:03;21.60;72.50
38265;DHT22;24062;47.480;8.768;2023-05-07T08:47:40;21.80;72.60
38265;DHT22;24062;47.480;8.768;2023-05-07T08:50:10;22.00;69.00
38265;DHT22;24062;47.480;8.768;2023-05-07T08:52:39;21.70;67.20
38265;DHT22;24062;47.480;8.768;2023-05-07T08:55:07;21.30;66.90
38265;DHT22;24062;47.480;8.768;2023-05-07T08:57:34;21.20;66.20
38265;DHT22;24062;47.480;8.768;2023-05-07T09:00:01;20.90;66.70
38265;DHT22;24062;47.480;8.768;2023-05-07T09:02:29;20.90;66.40
38265;DHT22;24062;47.480;8.768;2023-05-07T09:04:56;20.90;67.20
38265;DHT22;24062;47.480;8.768;2023-05-07T09:07:25;21.10;68.30
38265;DHT22;24062;47.480;8.768;2023-05-07T09:09:52;21.40;68.60
38265;DHT22;24062;47.480;8.768;2023-05-07T09:12:21;21.60;67.50
38265;DHT22;24062;47.480;8.768;2023-05-07T09:14:49;21.90;67.30
38265;DHT22;24062;47.480;8.768;2023-05-07T09:17:16;22.00;66.90
38265;DHT22;24062;47.480;8.768;2023-05-07T09:19:44;22.10;66.80
38265;DHT22;24062;47.480;8.768;2023-05-07T09:22:12;22.10;64.80
38265;DHT22;24062;47.480;8.768;2023-05-07T09:24:40;22.00;65.10
38265;DHT22;24062;47.480;8.768;2023-05-07T09:27:07;21.90;66.50
38265;DHT22;24062;47.480;8.768;2023-05-07T09:29:37;22.00;65.70
38265;DHT22;24062;47.480;8.768;2023-05-07T09:32:05;21.80;64.30
38265;DHT22;24062;47.480;8.768;2023-05-07T09:34:32;21.80;66.30
38265;DHT22;24062;47.480;8.768;2023-05-07T09:37:00;22.00;64.60
38265;DHT22;24062;47.480;8.768;2023-05-07T09:39:40;21.90;63.50
38265;DHT22;24062;47.480;8.768;2023-05-07T09:42:07;22.00;64.70
38265;DHT22;24062;47.480;8.768;2023-05-07T09:44:34;22.30;65.30
38265;DHT22;24062;47.480;8.768;2023-05-07T09:47:04;22.80;65.40
38265;DHT22;24062;47.480;8.768;2023-05-07T09:49:34;23.10;65.30
38265;DHT22;24062;47.480;8.768;2023-05-07T09:52:02;23.40;63.80
38265;DHT22;24062;47.480;8.768;2023-05-07T09:54:31;23.60;64.00
38265;DHT22;24062;47.480;8.768;2023-05-07T09:57:01;23.70;62.40
38265;DHT22;24062;47.480;8.768;2023-05-07T09:59:30;23.70;62.20
38265;DHT22;24062;47.480;8.768;2023-05-07T10:01:58;23.90;63.40
38265;DHT22;24062;47.480;8.768;2023-05-07T10:04:25;23.90;60.00
38265;DHT22;24062;47.480;8.768;2023-05-07T10:06:53;23.90;60.30
38265;DHT22;24062;47.480;8.768;2023-05-07T10:09:21;23.80;60.80
38265;DHT22;24062;47.480;8.768;2023-05-07T10:11:49;23.80;59.60
38265;DHT22;24062;47.480;8.768;2023-05-07T10:14:20;23.60;60.90
38265;DHT22;24062;47.480;8.768;2023-05-07T10:16:48;23.80;60.20
38265;DHT22;24062;47.480;8.768;2023-05-07T10:19:15;23.60;59.50
38265;DHT22;24062;47.480;8.768;2023-05-07T10:21:53;23.60;60.80
38265;DHT22;24062;47.480;8.768;2023-05-07T10:24:25;23.70;60.90
38265;DHT22;24062;47.480;8.768;2023-05-07T10:26:53;23.90;59.80
38265;DHT22;24062;47.480;8.768;2023-05-07T10:29:33;24.10;60.70
38265;DHT22;24062;47.480;8.768;2023-05-07T10:32:10;24.40;61.40
38265;DHT22;24062;47.480;8.768;2023-05-07T10:34:41;25.00;61.40
38265;DHT22;24062;47.480;8.768;2023-05-07T10:37:10;25.30;60.10
38265;DHT22;24062;47.480;8.768;2023-05-07T10:39:38;25.40;58.70
38265;DHT22;24062;47.480;8.768;2023-05-07T10:42:08;25.60;59.20
38265;DHT22;24062;47.480;8.768;2023-05-07T10:44:37;25.50;57.60
38265;DHT22;24062;47.480;8.768;2023-05-07T10:47:06;25.60;57.80
38265;DHT22;24062;47.480;8.768;2023-05-07T10:49:35;25.60;57.60
38265;DHT22;24062;47.480;8.768;2023-05-07T10:52:11;25.50;57.20
38265;DHT22;24062;47.480;8.768;2023-05-07T10:54:39;25.70;58.10
38265;DHT22;24062;47.480;8.768;2023-05-07T10:57:32;26.10;57.70
38265;DHT22;24062;47.480;8.768;2023-05-07T11:00:02;26.20;56.70
38265;DHT22;24062;47.480;8.768;2023-05-07T11:03:06;26.20;56.70
38265;DHT22;24062;47.480;8.768;2023-05-07T11:05:34;26.50;55.90
38265;DHT22;24062;47.480;8.768;2023-05-07T11:08:02;26.30;54.30
38265;DHT22;24062;47.480;8.768;2023-05-07T11:10:49;25.90;54.70
38265;DHT22;24062;47.480;8.768;2023-05-07T11:13:17;25.80;55.50
38265;DHT22;24062;47.480;8.768;2023-05-07T11:15:47;26.10;56.50
38265;DHT22;24062;47.480;8.768;2023-05-07T11:18:15;26.50;56.50
38265;DHT22;24062;47.480;8.768;2023-05-07T11:20:56;27.00;55.70
38265;DHT22;24062;47.480;8.768;2023-05-07T11:23:58;26.90;54.00
38265;DHT22;24062;47.480;8.768;2023-05-07T11:26:26;26.50;54.50
38265;DHT22;24062;47.480;8.768;2023-05-07T11:28:53;26.50;54.60
38265;DHT22;24062;47.480;8.768;2023-05-07T11:31:24;26.10;53.70
38265;DHT22;24062;47.480;8.768;2023-05-07T11:33:52;25.70;54.70
38265;DHT22;24062;47.480;8.768;2023-05-07T11:36:21;25.70;54.90
38265;DHT22;24062;47.480;8.768;2023-05-07T11:38:48;25.80;55.60
38265;DHT22;24062;47.480;8.768;2023-05-07T11:41:16;26.10;56.00
38265;DHT22;24062;47.480;8.768;2023-05-07T11:43:55;26.30;54.40
38265;DHT22;24062;47.480;8.768;2023-05-07T11:46:24;26.40;54.10
38265;DHT22;24062;47.480;8.768;2023-05-07T11:48:51;26.60;54.20
38265;DHT22;24062;47.480;8.768;2023-05-07T11:51:19;26.90;53.90
38265;DHT22;24062;47.480;8.768;2023-05-07T11:53:46;27.10;53.00
38265;DHT22;24062;47.480;8.768;2023-05-07T11:56:15;27.00;54.00
38265;DHT22;24062;47.480;8.768;2023-05-07T11:58:43;27.10;54.00
38265;DHT22;24062;47.480;8.768;2023-05-07T12:01:12;27.30;53.80
38265;DHT22;24062;47.480;8.768;2023-05-07T12:03:42;27.30;52.70
38265;DHT22;24062;47.480;8.768;2023-05-07T12:06:11;27.10;53.00
38265;DHT22;24062;47.480;8.768;2023-05-07T12:08:39;27.20;53.40
38265;DHT22;24062;47.480;8.768;2023-05-07T12:11:10;27.40;52.80
38265;DHT22;24062;47.480;8.768;2023-05-07T12:13:39;27.30;52.60
38265;DHT22;24062;47.480;8.768;2023-05-07T12:16:07;27.20;52.80
38265;DHT22;24062;47.480;8.768;2023-05-07T12:18:35;27.50;52.70
38265;DHT22;24062;47.480;8.768;2023-05-07T12:21:06;27.50;52.40
38265;DHT22;24062;47.480;8.768;2023-05-07T12:23:34;27.20;51.80
38265;DHT22;24062;47.480;8.768;2023-05-07T12:26:02;27.00;52.30
38265;DHT22;24062;47.480;8.768;2023-05-07T12:28:29;27.20;52.60
38265;DHT22;24062;47.480;8.768;2023-05-07T12:30:57;27.40;52.50
38265;DHT22;24062;47.480;8.768;2023-05-07T12:33:26;27.40;52.70
38265;DHT22;24062;47.480;8.768;2023-05-07T12:35:55;27.60;53.00
38265;DHT22;24062;47.480;8.768;2023-05-07T12:38:23;28.00;53.00
38265;DHT22;24062;47.480;8.768;2023-05-07T12:40:53;28.30;52.20
38265;DHT22;24062;47.480;8.768;2023-05-07T12:43:21;28.30;51.30
38265;DHT22;24062;47.480;8.768;2023-05-07T12:45:49;28.10;51.00
38265;DHT22;24062;47.480;8.768;2023-05-07T12:48:17;27.80;51.80
38265;DHT22;24062;47.480;8.768;2023-05-07T12:50:48;27.90;51.20
38265;DHT22;24062;47.480;8.768;2023-05-07T12:53:15;27.80;51.50
38265;DHT22;24062;47.480;8.768;2023-05-07T12:55:45;27.70;50.90
38265;DHT22;24062;47.480;8.768;2023-05-07T12:58:16;27.50;50.90
38265;DHT22;24062;47.480;8.768;2023-05-07T13:00:44;27.50;51.40
38265;DHT22;24062;47.480;8.768;2023-05-07T13:03:11;27.60;49.80
38265;DHT22;24062;47.480;8.768;2023-05-07T13:05:39;27.60;50.50
38265;DHT22;24062;47.480;8.768;2023-05-07T13:08:06;27.90;51.10
38265;DHT22;24062;47.480;8.768;2023-05-07T13:10:35;28.40;51.00
38265;DHT22;24062;47.480;8.768;2023-05-07T13:13:03;28.50;50.00
38265;DHT22;24062;47.480;8.768;2023-05-07T13:15:30;28.70;50.30
38265;DHT22;24062;47.480;8.768;2023-05-07T13:17:57;28.70;49.30
38265;DHT22;24062;47.480;8.768;2023-05-07T13:20:24;28.40;49.00
38265;DHT22;24062;47.480;8.768;2023-05-07T13:22:51;27.80;49.00
38265;DHT22;24062;47.480;8.768;2023-05-07T13:25:18;27.70;49.90
38265;DHT22;24062;47.480;8.768;2023-05-07T13:27:45;27.50;49.80
38265;DHT22;24062;47.480;8.768;2023-05-07T13:30:13;27.20;50.00
38265;DHT22;24062;47.480;8.768;2023-05-07T13:32:40;27.10;50.30
38265;DHT22;24062;47.480;8.768;2023-05-07T13:35:07;27.00;50.10
38265;DHT22;24062;47.480;8.768;2023-05-07T13:37:34;26.90;50.50
38265;DHT22;24062;47.480;8.768;2023-05-07T13:40:02;26.90;50.30
38265;DHT22;24062;47.480;8.768;2023-05-07T13:42:29;26.70;50.40
38265;DHT22;24062;47.480;8.768;2023-05-07T13:44:56;26.70;50.80
38265;DHT22;24062;47.480;8.768;2023-05-07T13:47:25;26.60;51.20
38265;DHT22;24062;47.480;8.768;2023-05-07T13:49:51;27.10;52.20
38265;DHT22;24062;47.480;8.768;2023-05-07T13:52:19;28.20;52.60
38265;DHT22;24062;47.480;8.768;2023-05-07T13:54:46;28.00;51.40
38265;DHT22;24062;47.480;8.768;2023-05-07T13:57:13;27.40;51.60
38265;DHT22;24062;47.480;8.768;2023-05-07T13:59:40;27.00;51.90
38265;DHT22;24062;47.480;8.768;2023-05-07T14:02:07;26.70;52.40
38265;DHT22;24062;47.480;8.768;2023-05-07T14:04:36;28.10;53.00
38265;DHT22;24062;47.480;8.768;2023-05-07T14:07:03;30.30;52.20
38265;DHT22;24062;47.480;8.768;2023-05-07T14:09:30;29.70;48.20
38265;DHT22;24062;47.480;8.768;2023-05-07T14:11:58;30.30;50.00
38265;DHT22;24062;47.480;8.768;2023-05-07T14:14:25;30.60;48.00
38265;DHT22;24062;47.480;8.768;2023-05-07T14:16:52;31.10;47.70
38265;DHT22;24062;47.480;8.768;2023-05-07T14:19:19;31.40;47.50
38265;DHT22;24062;47.480;8.768;2023-05-07T14:21:49;33.10;48.60
38265;DHT22;24062;47.480;8.768;2023-05-07T14:24:16;34.20;45.60
38265;DHT22;24062;47.480;8.768;2023-05-07T14:26:43;33.50;44.00
38265;DHT22;24062;47.480;8.768;2023-05-07T14:29:10;31.70;44.00
38265;DHT22;24062;47.480;8.768;2023-05-07T14:31:37;29.90;45.30
38265;DHT22;24062;47.480;8.768;2023-05-07T14:34:05;28.60;46.10
38265;DHT22;24062;47.480;8.768;2023-05-07T14:36:32;27.20;46.60
38265;DHT22;24062;47.480;8.768;2023-05-07T14:39:00;26.10;48.50
38265;DHT22;24062;47.480;8.768;2023-05-07T14:41:27;25.50;48.70
38265;DHT22;24062;47.480;8.768;2023-05-07T14:43:54;25.00;49.60
38265;DHT22;24062;47.480;8.768;2023-05-07T14:46:21;24.70;50.40
38265;DHT22;24062;47.480;8.768;2023-05-07T14:48:49;24.40;51.10
38265;DHT22;24062;47.480;8.768;2023-05-07T14:51:16;24.10;51.90
38265;DHT22;24062;47.480;8.768;2023-05-07T14:53:44;23.70;52.60
38265;DHT22;24062;47.480;8.768;2023-05-07T14:56:12;23.40;53.30
38265;DHT22;24062;47.480;8.768;2023-05-07T14:58:39;23.20;53.60
38265;DHT22;24062;47.480;8.768;2023-05-07T15:01:06;23.20;55.10
38265;DHT22;24062;47.480;8.768;2023-05-07T15:03:33;22.90;55.10
38265;DHT22;24062;47.480;8.768;2023-05-07T15:06:01;22.70;55.90
38265;DHT22;24062;47.480;8.768;2023-05-07T15:08:28;22.40;56.40
38265;DHT22;24062;47.480;8.768;2023-05-07T15:10:55;22.20;57.00
38265;DHT22;24062;47.480;8.768;2023-05-07T15:13:24;22.00;57.80
38265;DHT22;24062;47.480;8.768;2023-05-07T15:15:51;21.80;57.90
38265;DHT22;24062;47.480;8.768;2023-05-07T15:18:17;21.70;58.40
38265;DHT22;24062;47.480;8.768;2023-05-07T15:20:44;21.70;59.60
38265;DHT22;24062;47.480;8.768;2023-05-07T15:23:11;21.50;60.10
38265;DHT22;24062;47.480;8.768;2023-05-07T15:25:39;21.50;61.70
38265;DHT22;24062;47.480;8.768;2023-05-07T15:28:06;21.30;61.70
38265;DHT22;24062;47.480;8.768;2023-05-07T15:30:34;21.20;62.30
38265;DHT22;24062;47.480;8.768;2023-05-07T15:33:02;20.90;63.00
38265;DHT22;24062;47.480;8.768;2023-05-07T15:35:29;20.50;62.90